Time;durP1;ratioP1;P1;durP2;ratioP2;P2;SDS_P1;SDS_P2;PMS_P1;PMS_P2;Temp;Humidity;BMP_temperature;BMP_pressure;BME280_temperature;BME280_humidity;BME280_pressure;Samples;Min_cycle;Max_cycle;Signal;HPM_P1;HPM_P2
2023/03/11 00:00:43;;;;;;;2.88;1.00;;;1.30;99.90;;;;;;5083276;28;20036;-58
2023/03/11 00:03:12;;;;;;;8.23;1.20;;;1.30;99.90;;;;;;5056022;28;20051;-58
2023/03/11 00:05:40;;;;;;;3.45;1.25;;;1.30;99.90;;;;;;5067222;28;20036;-58
2023/03/11 00:08:08;;;;;;;6.80;1.15;;;1.30;99.90;;;;;;5063262;28;20033;-59
2023/03/11 00:10:37;;;;;;;5.18;0.90;;;1.30;99.90;;;;;;5073367;28;20124;-57
2023/03/11 00:13:04;;;;;;;5.25;0.90;;;1.30;99.90;;;;;;5053161;28;20127;-58
2023/03/11 00:15:31;;;;;;;6.30;1.05;;;1.30;99.90;;;;;;5061506;28;20095;-58
2023/03/11 00:17:57;;;;;;;3.55;0.82;;;1.30;99.90;;;;;;5056442;28;20051;-58
2023/03/11 00:20:32;;;;;;;2.65;1.13;;;1.30;99.90;;;;;;5072415;28;20054;-58
2023/03/11 00:23:01;;;;;;;4.25;1.35;;;1.30;99.90;;;;;;5048020;28;20051;-58
2023/03/11 00:25:30;;;;;;;5.82;1.20;;;1.30;99.90;;;;;;5072452;28;20047;-57
2023/03/11 00:27:56;;;;;;;4.05;0.77;;;1.30;99.90;;;;;;5085556;28;20087;-58
2023/03/11 00:30:23;;;;;;;4.43;1.35;;;1.30;99.90;;;;;;5077816;28;20088;-58
2023/03/11 00:32:51;;;;;;;5.30;1.08;;;1.20;99.90;;;;;;5062750;28;20040;-59
2023/03/11 00:35:20;;;;;;;3.33;0.80;;;1.20;99.90;;;;;;5046006;28;20055;-58
2023/03/11 00:37:47;;;;;;;3.83;0.88;;;1.20;99.90;;;;;;5079011;28;20047;-59
2023/03/11 00:40:16;;;;;;;6.53;1.15;;;1.20;99.90;;;;;;5051477;28;20046;-58
2023/03/11 00:42:41;;;;;;;9.90;1.33;;;1.30;99.90;;;;;;5071153;28;20406;-59
2023/03/11 00:45:08;;;;;;;5.03;1.02;;;1.20;99.90;;;;;;5080600;28;20050;-58
2023/03/11 00:47:34;;;;;;;7.38;1.17;;;1.20;99.90;;;;;;5083090;28;20036;-57
2023/03/11 00:50:00;;;;;;;8.02;1.30;;;1.20;99.90;;;;;;5077836;28;20036;-58
2023/03/11 00:52:27;;;;;;;4.72;1.20;;;1.20;99.90;;;;;;5063034;28;20493;-58
2023/03/11 00:54:54;;;;;;;3.95;0.80;;;1.20;99.90;;;;;;5063466;28;20119;-58
2023/03/11 00:57:19;;;;;;;6.10;0.73;;;1.30;99.90;;;;;;5084343;28;20035;-57
2023/03/11 00:59:45;;;;;;;20.42;2.88;;;1.20;99.90;;;;;;5046999;28;20044;-57
2023/03/11 01:02:11;;;;;;;2.03;0.65;;;1.20;99.90;;;;;;5061784;28;20065;-58
2023/03/11 01:04:36;;;;;;;6.68;1.00;;;1.10;99.90;;;;;;5058239;28;20072;-57
2023/03/11 01:07:02;;;;;;;5.30;0.82;;;1.10;99.90;;;;;;5075862;28;20046;-57
2023/03/11 01:09:28;;;;;;;5.68;1.10;;;1.10;99.90;;;;;;5045941;28;20063;-58
2023/03/11 01:11:54;;;;;;;5.32;1.17;;;1.10;99.90;;;;;;5061171;28;20081;-58
2023/03/11 01:14:20;;;;;;;2.80;0.88;;;1.10;99.90;;;;;;5042890;28;22431;-57
2023/03/11 01:16:46;;;;;;;1.48;0.55;;;1.00;99.90;;;;;;5074716;28;20048;-58
2023/03/11 01:19:15;;;;;;;3.15;0.60;;;1.10;99.90;;;;;;5063414;28;20374;-57
2023/03/11 01:21:42;;;;;;;5.20;0.75;;;1.10;99.90;;;;;;5078140;28;20036;-57
2023/03/11 01:24:08;;;;;;;2.88;0.82;;;1.10;99.90;;;;;;5065881;28;20049;-57
2023/03/11 01:26:33;;;;;;;1.85;0.75;;;1.10;99.90;;;;;;5070924;28;20045;-59
2023/03/11 01:29:02;;;;;;;4.90;1.27;;;1.10;99.90;;;;;;5064978;28;20040;-58
2023/03/11 01:31:27;;;;;;;3.67;1.02;;;1.10;99.90;;;;;;5079117;28;20036;-58
2023/03/11 01:33:53;;;;;;;4.78;0.98;;;1.10;99.90;;;;;;5083781;28;20452;-57
2023/03/11 01:36:19;;;;;;;2.83;1.02;;;1.10;99.90;;;;;;5065631;28;20496;-58
2023/03/11 01:38:45;;;;;;;2.92;0.95;;;1.00;99.90;;;;;;5081448;28;20046;-58
2023/03/11 01:41:11;;;;;;;4.05;0.63;;;1.00;99.90;;;;;;5080156;28;20402;-58
2023/03/11 01:43:43;;;;;;;6.22;2.05;;;1.10;99.90;;;;;;5056566;28;20088;-58
2023/03/11 01:46:32;;;;;;;8.60;2.45;;;1.10;99.90;;;;;;5082015;28;20514;-58
2023/03/11 01:49:00;;;;;;;2.28;0.80;;;1.00;99.90;;;;;;5075649;28;20048;-58
2023/03/11 01:51:41;;;;;;;6.55;1.00;;;1.00;99.90;;;;;;5082603;28;20036;-58
2023/03/11 01:54:15;;;;;;;3.25;0.85;;;1.00;99.90;;;;;;5079174;28;20127;-58
2023/03/11 01:56:41;;;;;;;3.63;0.75;;;0.90;99.90;;;;;;5076024;28;20097;-58
2023/03/11 01:59:10;;;;;;;5.68;1.38;;;0.90;99.90;;;;;;5050788;28;20043;-58
2023/03/11 02:01:48;;;;;;;3.22;1.30;;;0.90;99.90;;;;;;5081435;28;20119;-58
2023/03/11 02:04:14;;;;;;;5.40;0.80;;;0.90;99.90;;;;;;5076531;28;20040;-58
2023/03/11 02:06:40;;;;;;;4.07;0.88;;;0.90;99.90;;;;;;5073646;28;20440;-58
2023/03/11 02:09:07;;;;;;;12.35;1.00;;;0.90;99.90;;;;;;5075771;28;20115;-58
2023/03/11 02:11:33;;;;;;;8.90;1.30;;;0.90;99.90;;;;;;5087228;28;20093;-58
2023/03/11 02:14:03;;;;;;;3.80;0.70;;;0.80;99.90;;;;;;5061557;28;20029;-59
2023/03/11 02:16:29;;;;;;;2.58;0.70;;;0.80;99.90;;;;;;5075061;28;20036;-58
2023/03/11 02:18:58;;;;;;;4.25;1.27;;;0.80;99.90;;;;;;5061080;28;20117;-58
2023/03/11 02:21:33;;;;;;;3.50;0.80;;;0.80;99.90;;;;;;5076796;28;20093;-58
2023/03/11 02:24:06;;;;;;;5.18;0.88;;;0.80;99.90;;;;;;5077666;28;20087;-58
2023/03/11 02:26:57;;;;;;;3.78;0.77;;;0.70;99.90;;;;;;5043225;28;20064;-58
2023/03/11 02:29:26;;;;;;;2.38;0.50;;;0.70;99.90;;;;;;5080737;28;20043;-58
2023/03/11 02:31:51;;;;;;;1.70;0.50;;;0.70;99.90;;;;;;5058876;28;20534;-58
2023/03/11 02:34:26;;;;;;;3.53;1.00;;;0.70;99.90;;;;;;5081321;28;20028;-57
2023/03/11 02:36:52;;;;;;;5.10;1.15;;;0.60;99.90;;;;;;5063397;28;20040;-58
2023/03/11 02:39:38;;;;;;;4.47;0.80;;;0.70;99.90;;;;;;5076108;28;20048;-58
2023/03/11 02:42:11;;;;;;;2.53;0.80;;;0.70;99.90;;;;;;5087146;28;20032;-58
2023/03/11 02:44:38;;;;;;;8.05;1.02;;;0.70;99.90;;;;;;5084969;28;20163;-58
2023/03/11 02:47:04;;;;;;;8.00;1.05;;;0.70;99.90;;;;;;5068184;28;20632;-57
2023/03/11 02:49:30;;;;;;;5.57;0.82;;;0.70;99.90;;;;;;5063679;28;20118;-57
2023/03/11 02:51:56;;;;;;;3.72;0.75;;;0.70;99.90;;;;;;5086091;28;20047;-58
2023/03/11 02:54:22;;;;;;;6.07;1.38;;;0.70;99.90;;;;;;5053891;28;20058;-57
2023/03/11 02:56:48;;;;;;;7.90;1.75;;;0.70;99.90;;;;;;5044795;28;20177;-58
2023/03/11 02:59:13;;;;;;;4.72;1.08;;;0.70;99.90;;;;;;5061953;28;20051;-58
2023/03/11 03:01:39;;;;;;;2.50;0.52;;;0.60;99.90;;;;;;5051795;28;20127;-58
2023/03/11 03:04:05;;;;;;;5.88;0.88;;;0.60;99.90;;;;;;5078503;28;20036;-58
2023/03/11 03:06:30;;;;;;;4.20;0.93;;;0.50;99.90;;;;;;5045035;28;20126;-57
2023/03/11 03:08:56;;;;;;;4.38;0.88;;;0.50;99.90;;;;;;5062479;28;20046;-58
2023/03/11 03:11:22;;;;;;;5.97;1.33;;;0.50;99.90;;;;;;5080255;28;20393;-58
2023/03/11 03:13:48;;;;;;;7.85;1.05;;;0.50;99.90;;;;;;5083586;28;20036;-58
2023/03/11 03:16:13;;;;;;;3.53;1.02;;;0.50;99.90;;;;;;5080809;28;20035;-58
2023/03/11 03:18:39;;;;;;;6.05;0.80;;;0.40;99.90;;;;;;5081187;28;20044;-58
2023/03/11 03:21:05;;;;;;;3.22;0.82;;;0.40;99.90;;;;;;5075420;28;20478;-58
2023/03/11 03:23:36;;;;;;;3.75;0.75;;;0.40;99.90;;;;;;5084795;28;20048;-57
2023/03/11 03:26:05;;;;;;;2.78;0.80;;;0.40;99.90;;;;;;5061858;28;20479;-58
2023/03/11 03:28:31;;;;;;;3.72;1.05;;;0.40;99.90;;;;;;5077551;28;20097;-58
2023/03/11 03:31:04;;;;;;;10.98;1.30;;;0.40;99.90;;;;;;5081242;28;20024;-58
2023/03/11 03:33:30;;;;;;;3.80;0.80;;;0.40;99.90;;;;;;5046685;28;20039;-58
2023/03/11 03:35:56;;;;;;;4.68;1.17;;;0.40;99.90;;;;;;5079663;28;20127;-57
2023/03/11 03:38:22;;;;;;;4.15;0.90;;;0.40;99.90;;;;;;5086768;28;20116;-58
2023/03/11 03:40:47;;;;;;;7.05;1.10;;;0.30;99.90;;;;;;5080092;28;20446;-58
2023/03/11 03:43:13;;;;;;;6.00;1.20;;;0.30;99.90;;;;;;5064817;28;20043;-58
2023/03/11 03:45:39;;;;;;;2.05;0.70;;;0.30;99.90;;;;;;5065301;28;20084;-58
2023/03/11 03:48:05;;;;;;;4.68;1.40;;;0.30;99.90;;;;;;5078091;28;20043;-58
2023/03/11 03:50:31;;;;;;;5.82;0.70;;;0.30;99.90;;;;;;5077628;28;20475;-57
2023/03/11 03:52:57;;;;;;;3.28;0.95;;;0.30;99.90;;;;;;5081875;28;20076;-58
2023/03/11 03:55:23;;;;;;;6.75;1.65;;;0.20;99.90;;;;;;5086166;28;20461;-58
2023/03/11 03:57:48;;;;;;;3.80;0.90;;;0.20;99.90;;;;;;5071177;28;20068;-57
2023/03/11 04:00:14;;;;;;;3.75;0.77;;;0.00;99.90;;;;;;5077358;28;20044;-56
2023/03/11 04:02:41;;;;;;;2.38;0.68;;;0.00;99.90;;;;;;5038406;28;20122;-57
2023/03/11 04:05:09;;;;;;;2.43;0.60;;;-0.10;99.90;;;;;;5046635;28;20039;-58
2023/03/11 04:07:35;;;;;;;4.38;0.63;;;-0.20;99.90;;;;;;5042618;28;20036;-58
2023/03/11 04:10:02;;;;;;;3.28;0.60;;;-0.30;99.90;;;;;;5055024;28;20039;-58
2023/03/11 04:12:28;;;;;;;6.45;1.00;;;-0.30;99.90;;;;;;5062939;28;20284;-58
2023/03/11 04:14:54;;;;;;;4.15;1.00;;;-0.40;99.90;;;;;;5082210;28;20148;-57
2023/03/11 04:17:19;;;;;;;3.65;0.98;;;-0.50;99.90;;;;;;5064310;28;20046;-58
2023/03/11 04:19:45;;;;;;;5.00;1.05;;;-0.50;99.90;;;;;;5075142;28;20185;-58
2023/03/11 04:22:12;;;;;;;7.15;1.08;;;-0.60;99.90;;;;;;5059914;28;20036;-58
2023/03/11 04:24:37;;;;;;;5.43;0.80;;;-0.70;99.90;;;;;;5086139;28;20123;-56
2023/03/11 04:27:03;;;;;;;3.67;0.77;;;-0.70;99.90;;;;;;5062762;28;20210;-57
2023/03/11 04:29:29;;;;;;;4.25;0.75;;;-0.70;99.90;;;;;;5078757;28;20091;-58
2023/03/11 04:31:54;;;;;;;5.43;0.70;;;-0.80;99.90;;;;;;5031926;28;20045;-58
2023/03/11 04:34:20;;;;;;;2.95;1.05;;;-0.90;99.90;;;;;;5081645;28;20503;-58
2023/03/11 04:36:46;;;;;;;6.50;1.20;;;-0.90;99.90;;;;;;5077447;28;20050;-58
2023/03/11 04:39:14;;;;;;;4.33;0.80;;;-1.00;99.90;;;;;;5057920;28;20027;-58
2023/03/11 04:41:42;;;;;;;5.63;1.08;;;-1.10;99.90;;;;;;5061506;28;20410;-58
2023/03/11 04:44:08;;;;;;;6.15;1.38;;;-1.10;99.90;;;;;;5076953;28;20055;-58
2023/03/11 04:46:34;;;;;;;4.80;1.10;;;-1.10;99.90;;;;;;5057418;28;20040;-59
2023/03/11 04:48:59;;;;;;;8.20;2.30;;;-1.20;99.90;;;;;;5056919;28;20451;-58
2023/03/11 04:51:25;;;;;;;2.67;0.90;;;-1.30;99.90;;;;;;5043467;28;20418;-58
2023/03/11 04:53:51;;;;;;;2.33;0.70;;;-1.30;99.90;;;;;;5072531;28;20043;-59
2023/03/11 04:56:17;;;;;;;5.37;0.70;;;-1.30;99.90;;;;;;5079515;28;20040;-57
2023/03/11 04:58:42;;;;;;;4.90;0.83;;;-1.40;99.90;;;;;;5063386;28;20041;-58
2023/03/11 05:01:08;;;;;;;5.80;1.10;;;-1.40;99.90;;;;;;5061579;28;20519;-59
2023/03/11 05:03:34;;;;;;;1.80;0.70;;;-1.40;99.90;;;;;;5063926;28;20036;-58
2023/03/11 05:05:59;;;;;;;4.50;0.83;;;-1.40;99.90;;;;;;5061778;28;20036;-58
2023/03/11 05:08:25;;;;;;;4.07;0.70;;;-1.40;99.90;;;;;;5078320;28;20048;-58
2023/03/11 05:10:51;;;;;;;6.80;1.00;;;-1.40;99.90;;;;;;5059128;28;20036;-58
2023/03/11 05:13:18;;;;;;;6.37;1.20;;;-1.40;99.90;;;;;;5060533;28;20122;-58
2023/03/11 05:15:48;;;;;;;1.93;0.80;;;-1.50;99.90;;;;;;5078966;28;20789;-58
2023/03/11 05:18:14;;;;;;;4.77;1.23;;;-1.50;99.90;;;;;;5081254;28;20055;-57
2023/03/11 05:20:40;;;;;;;4.30;1.00;;;-1.50;99.90;;;;;;5059028;28;20128;-58
2023/03/11 05:23:06;;;;;;;3.83;1.00;;;-1.50;99.90;;;;;;5078896;28;20102;-58
2023/03/11 05:25:34;;;;;;;4.87;0.90;;;-1.50;99.90;;;;;;5078949;28;20062;-58
2023/03/11 05:28:00;;;;;;;6.17;2.37;;;-1.50;99.90;;;;;;5073649;22;20075;-52
2023/03/11 05:30:26;;;;;;;3.23;0.97;;;-1.50;99.90;;;;;;5060429;28;20509;-56
2023/03/11 05:32:55;;;;;;;4.57;1.10;;;-1.60;99.90;;;;;;5059050;28;20047;-53
2023/03/11 05:35:21;;;;;;;2.57;0.73;;;-1.40;99.90;;;;;;5054218;28;20040;-56
2023/03/11 05:37:48;;;;;;;8.60;1.03;;;-1.60;99.90;;;;;;5065096;28;20528;-52
2023/03/11 05:40:15;;;;;;;6.37;1.00;;;-1.60;99.90;;;;;;5062760;28;20036;-52
2023/03/11 05:42:41;;;;;;;4.70;1.20;;;-1.70;99.90;;;;;;5056071;28;20071;-53
2023/03/11 05:45:07;;;;;;;2.60;0.80;;;-1.70;99.90;;;;;;5065844;28;20078;-55
2023/03/11 05:47:33;;;;;;;3.47;1.20;;;-1.80;99.90;;;;;;5081211;28;21620;-55
2023/03/11 05:49:59;;;;;;;9.50;1.60;;;-1.80;99.90;;;;;;5040639;28;20047;-58
2023/03/11 05:52:25;;;;;;;2.53;1.23;;;-1.80;99.90;;;;;;5077119;28;20079;-54
2023/03/11 05:54:51;;;;;;;3.17;1.00;;;-1.80;99.90;;;;;;5081449;28;20050;-54
2023/03/11 05:57:18;;;;;;;5.53;1.40;;;-1.90;99.90;;;;;;5068316;28;20043;-56
2023/03/11 05:59:43;;;;;;;5.57;2.17;;;-1.90;99.90;;;;;;5030590;28;20146;-57
2023/03/11 06:02:12;;;;;;;8.17;1.53;;;-1.90;99.90;;;;;;5061143;28;20054;-57
2023/03/11 06:04:38;;;;;;;4.20;1.70;;;-1.90;99.90;;;;;;5074539;28;20419;-54
2023/03/11 06:07:04;;;;;;;6.40;1.40;;;-1.90;99.90;;;;;;5085831;28;20040;-56
2023/03/11 06:09:30;;;;;;;5.43;1.97;;;-1.90;99.90;;;;;;5049566;28;20035;-56
2023/03/11 06:11:55;;;;;;;4.53;2.10;;;-1.90;99.90;;;;;;5051152;28;20036;-55
2023/03/11 06:14:21;;;;;;;7.27;1.73;;;-1.90;99.90;;;;;;5083111;28;20078;-55
2023/03/11 06:16:47;;;;;;;4.67;1.40;;;-1.90;99.90;;;;;;5069898;28;20131;-58
2023/03/11 06:19:13;;;;;;;5.23;2.50;;;-1.90;99.90;;;;;;5052425;28;20123;-56
2023/03/11 06:21:38;;;;;;;7.57;1.80;;;-1.90;99.90;;;;;;5069669;28;20490;-57
2023/03/11 06:24:04;;;;;;;4.17;1.53;;;-1.90;99.90;;;;;;5054133;28;20042;-57
2023/03/11 06:26:30;;;;;;;5.40;1.90;;;-1.90;99.90;;;;;;5076571;28;20043;-57
2023/03/11 06:28:56;;;;;;;4.97;1.87;;;-1.80;99.90;;;;;;5072549;28;20399;-55
2023/03/11 06:31:24;;;;;;;7.00;1.93;;;-1.80;99.90;;;;;;5066770;28;20081;-57
2023/03/11 06:33:51;;;;;;;8.27;2.20;;;-1.70;99.90;;;;;;5044177;28;20054;-58
2023/03/11 06:36:19;;;;;;;4.70;1.60;;;-1.70;99.90;;;;;;5065497;28;20509;-55
2023/03/11 06:38:45;;;;;;;6.90;2.03;;;-1.70;99.90;;;;;;5068538;28;20632;-58
2023/03/11 06:41:11;;;;;;;3.50;1.63;;;-1.60;99.90;;;;;;5054078;28;20032;-55
2023/03/11 06:43:38;;;;;;;6.57;2.20;;;-1.60;99.90;;;;;;5053644;28;20047;-56
2023/03/11 06:46:12;;;;;;;3.83;1.70;;;-1.50;99.90;;;;;;5073300;28;20051;-57
2023/03/11 06:48:38;;;;;;;4.77;1.57;;;-1.50;99.90;;;;;;5045399;28;20048;-56
2023/03/11 06:51:05;;;;;;;10.10;2.13;;;-1.40;99.90;;;;;;5077826;28;20040;-55
2023/03/11 06:53:30;;;;;;;7.83;2.17;;;-1.10;99.90;;;;;;5052412;28;20158;-56
2023/03/11 06:56:17;;;;;;;7.43;2.30;;;-0.50;99.90;;;;;;5066188;28;20161;-55
2023/03/11 06:58:43;;;;;;;10.13;2.53;;;0.00;99.90;;;;;;5065103;28;20048;-55
2023/03/11 07:01:14;;;;;;;4.73;2.17;;;0.50;99.90;;;;;;5063608;28;20043;-55
2023/03/11 07:03:40;;;;;;;6.10;2.17;;;1.00;99.90;;;;;;5067196;28;20040;-56
2023/03/11 07:06:14;;;;;;;5.83;1.90;;;1.40;99.90;;;;;;5066894;28;20047;-56
2023/03/11 07:08:40;;;;;;;8.38;1.92;;;1.60;99.90;;;;;;5064916;28;20584;-57
2023/03/11 07:11:17;;;;;;;5.70;1.67;;;1.70;99.90;;;;;;5068297;28;20047;-55
2023/03/11 07:13:43;;;;;;;4.53;1.67;;;1.70;99.90;;;;;;5078322;28;20040;-56
2023/03/11 07:16:21;;;;;;;5.07;1.73;;;1.60;99.90;;;;;;5088247;28;20050;-58
2023/03/11 07:18:48;;;;;;;7.07;2.27;;;1.50;99.90;;;;;;5065985;28;20291;-58
2023/03/11 07:21:16;;;;;;;10.68;2.72;;;1.40;99.90;;;;;;5050953;28;20390;-57
2023/03/11 07:23:43;;;;;;;10.48;3.20;;;1.30;99.90;;;;;;5049611;28;20081;-55
2023/03/11 07:26:16;;;;;;;11.35;3.08;;;1.40;99.90;;;;;;5070527;28;20122;-55
2023/03/11 07:28:43;;;;;;;6.03;2.00;;;1.30;99.90;;;;;;5030398;28;20040;-54
2023/03/11 07:31:12;;;;;;;7.20;2.00;;;1.30;99.90;;;;;;5053891;28;20431;-53
2023/03/11 07:33:38;;;;;;;5.15;1.77;;;1.50;99.90;;;;;;5066282;28;20050;-54
2023/03/11 07:36:16;;;;;;;8.27;2.45;;;1.50;99.90;;;;;;5048449;28;20036;-53
2023/03/11 07:38:42;;;;;;;8.90;2.75;;;1.50;99.90;;;;;;5066773;28;20109;-54
2023/03/11 07:41:10;;;;;;;14.55;2.80;;;1.50;99.90;;;;;;5052972;28;20042;-56
2023/03/11 07:43:36;;;;;;;8.65;2.40;;;1.50;99.90;;;;;;5065525;28;20040;-52
2023/03/11 07:46:06;;;;;;;7.00;2.42;;;1.50;99.90;;;;;;5050309;28;20032;-56
2023/03/11 07:48:32;;;;;;;6.97;2.17;;;1.60;99.90;;;;;;5068340;28;20086;-52
2023/03/11 07:51:11;;;;;;;8.63;1.98;;;1.60;99.90;;;;;;5068564;28;20032;-53
2023/03/11 07:53:39;;;;;;;7.03;2.47;;;1.70;99.90;;;;;;5067274;28;20060;-56
2023/03/11 07:56:06;;;;;;;8.45;2.97;;;1.80;99.90;;;;;;5025199;28;20035;-56
2023/03/11 07:58:32;;;;;;;9.95;2.72;;;1.90;99.90;;;;;;5057635;28;20047;-54
2023/03/11 08:01:15;;;;;;;11.48;3.10;;;2.10;99.90;;;;;;5066088;28;20039;-55
2023/03/11 08:03:41;;;;;;;17.55;3.25;;;2.20;99.90;;;;;;5068394;28;20119;-55
2023/03/11 08:06:15;;;;;;;13.27;3.58;;;2.40;99.90;;;;;;5068859;28;20034;-58
2023/03/11 08:08:41;;;;;;;10.40;2.45;;;2.50;99.90;;;;;;5063268;28;20211;-55
2023/03/11 08:11:08;;;;;;;8.93;3.83;;;2.70;99.90;;;;;;5069630;28;20035;-53
2023/03/11 08:13:34;;;;;;;12.57;3.08;;;2.90;99.90;;;;;;5050158;28;20097;-56
2023/03/11 08:16:03;;;;;;;9.90;3.47;;;3.10;99.90;;;;;;5067059;28;20502;-54
2023/03/11 08:18:30;;;;;;;9.93;3.60;;;3.30;99.90;;;;;;5064743;28;20568;-54
2023/03/11 08:20:56;;;;;;;8.05;2.97;;;3.50;99.90;;;;;;5053499;28;20101;-57
2023/03/11 08:23:21;;;;;;;11.57;4.03;;;3.70;99.90;;;;;;5065840;28;20036;-55
2023/03/11 08:25:47;;;;;;;9.75;4.28;;;3.90;99.90;;;;;;5065288;28;20040;-56
2023/03/11 08:28:13;;;;;;;8.70;3.83;;;4.00;99.90;;;;;;5064940;28;20037;-54
2023/03/11 08:30:39;;;;;;;9.15;3.33;;;4.10;99.90;;;;;;5049974;28;20036;-57
2023/03/11 08:33:05;;;;;;;9.52;2.80;;;4.20;99.90;;;;;;5049192;28;20044;-54
2023/03/11 08:35:31;;;;;;;10.98;3.45;;;4.30;99.90;;;;;;5060521;28;20056;-53
2023/03/11 08:37:57;;;;;;;10.95;3.50;;;4.30;99.90;;;;;;5067421;28;20446;-55
2023/03/11 08:40:23;;;;;;;9.10;3.05;;;4.40;99.90;;;;;;5051742;28;20039;-54
2023/03/11 08:42:48;;;;;;;6.60;2.58;;;4.50;99.90;;;;;;5061676;28;20044;-55
2023/03/11 08:45:14;;;;;;;4.55;2.63;;;4.70;99.90;;;;;;5038707;28;20604;-56
2023/03/11 08:47:40;;;;;;;11.18;2.40;;;4.80;99.90;;;;;;5046873;28;20043;-56
2023/03/11 08:50:11;;;;;;;11.98;3.13;;;5.00;99.90;;;;;;5038537;28;20043;-58
2023/03/11 08:52:37;;;;;;;5.47;2.35;;;5.10;99.90;;;;;;5061249;28;20035;-57
2023/03/11 08:55:04;;;;;;;8.00;2.78;;;5.10;99.90;;;;;;5044289;28;20826;-57
2023/03/11 08:57:31;;;;;;;7.68;2.80;;;5.20;99.90;;;;;;5063717;28;20048;-55
2023/03/11 08:59:59;;;;;;;8.95;3.00;;;5.30;99.90;;;;;;5065228;28;20044;-56
2023/03/11 09:02:26;;;;;;;8.40;3.72;;;5.40;99.90;;;;;;5067865;28;20040;-55
2023/03/11 09:04:52;;;;;;;8.07;3.05;;;5.50;99.90;;;;;;5051262;28;20028;-55
2023/03/11 09:07:18;;;;;;;9.68;2.60;;;5.60;99.90;;;;;;5085794;28;20032;-55
2023/03/11 09:09:43;;;;;;;9.23;2.28;;;5.60;99.90;;;;;;5043840;28;20395;-54
2023/03/11 09:12:12;;;;;;;4.95;2.00;;;5.60;99.90;;;;;;5047733;28;20040;-58
2023/03/11 09:14:42;;;;;;;6.85;1.73;;;5.70;99.90;;;;;;5063247;28;20040;-59
2023/03/11 09:17:10;;;;;;;7.88;1.58;;;5.60;99.90;;;;;;5060662;28;20037;-56
2023/03/11 09:19:37;;;;;;;8.02;1.75;;;5.60;99.90;;;;;;5055870;28;20036;-54
2023/03/11 09:22:03;;;;;;;10.65;2.10;;;5.60;99.90;;;;;;5084994;28;20048;-52
2023/03/11 09:24:32;;;;;;;10.43;1.33;;;5.70;99.90;;;;;;5052140;28;20031;-52
2023/03/11 09:26:58;;;;;;;5.25;1.40;;;5.80;99.90;;;;;;5060909;28;20163;-56
2023/03/11 09:29:24;;;;;;;7.90;1.23;;;5.70;99.90;;;;;;5064967;28;20123;-57
2023/03/11 09:31:49;;;;;;;6.50;2.40;;;5.80;99.90;;;;;;5083867;28;20046;-53
2023/03/11 09:34:15;;;;;;;6.28;1.50;;;6.00;99.90;;;;;;5080683;28;20039;-55
2023/03/11 09:36:41;;;;;;;5.35;1.63;;;6.10;99.90;;;;;;5034982;28;20039;-55
2023/03/11 09:39:08;;;;;;;8.18;1.50;;;6.30;99.90;;;;;;5052897;28;20039;-56
2023/03/11 09:41:39;;;;;;;10.90;1.85;;;6.50;99.90;;;;;;5048501;28;21313;-56
2023/03/11 09:44:43;;;;;;;6.63;1.60;;;6.60;99.90;;;;;;5065342;28;20074;-55
2023/03/11 09:47:33;;;;;;;3.75;1.15;;;6.60;99.90;;;;;;5061675;28;20061;-56
2023/03/11 09:50:10;;;;;;;7.78;1.35;;;6.70;99.90;;;;;;5065370;28;20047;-57
2023/03/11 09:52:44;;;;;;;4.90;1.23;;;7.00;99.90;;;;;;5062257;28;20032;-59
2023/03/11 09:55:28;;;;;;;7.07;1.33;;;7.00;99.90;;;;;;5063210;28;20119;-58
2023/03/11 09:57:56;;;;;;;5.80;1.08;;;7.10;99.90;;;;;;5050392;28;20049;-59
2023/03/11 10:00:23;;;;;;;5.20;1.13;;;7.10;99.90;;;;;;5045447;28;20757;-57
2023/03/11 10:02:50;;;;;;;6.03;1.15;;;7.10;99.90;;;;;;5054758;28;20104;-57
2023/03/11 10:05:27;;;;;;;5.10;1.20;;;7.10;99.90;;;;;;5071238;28;20132;-58
2023/03/11 10:07:57;;;;;;;5.32;1.17;;;7.20;99.90;;;;;;5059534;28;20101;-57
2023/03/11 10:10:25;;;;;;;5.70;1.15;;;7.10;99.90;;;;;;5070515;28;20036;-57
2023/03/11 10:13:25;;;;;;;6.53;1.33;;;7.00;99.90;;;;;;5067164;28;20471;-58
2023/03/11 10:16:37;;;;;;;4.32;1.50;;;7.10;99.90;;;;;;5046684;28;20100;-57
2023/03/11 10:19:19;;;;;;;5.40;1.30;;;7.00;99.90;;;;;;5059125;28;20057;-58
2023/03/11 10:22:23;;;;;;;8.63;1.23;;;7.10;99.90;;;;;;5064762;28;20063;-55
2023/03/11 10:25:04;;;;;;;6.22;1.40;;;7.30;99.90;;;;;;5075333;28;20592;-57
2023/03/11 10:27:38;;;;;;;2.90;1.00;;;7.40;99.90;;;;;;5062068;28;20052;-58
2023/03/11 10:30:19;;;;;;;4.30;1.10;;;7.50;99.90;;;;;;5048590;28;20132;-58
2023/03/11 10:33:06;;;;;;;4.93;1.08;;;7.70;99.90;;;;;;5055395;28;20036;-59
2023/03/11 10:35:40;;;;;;;5.35;1.23;;;7.80;99.90;;;;;;5065772;28;20044;-58
2023/03/11 10:38:27;;;;;;;5.38;0.95;;;7.90;99.90;;;;;;5070562;28;20044;-58
2023/03/11 10:40:59;;;;;;;6.20;1.48;;;7.80;99.90;;;;;;5050138;28;20101;-59
2023/03/11 10:43:37;;;;;;;5.57;1.23;;;8.00;99.90;;;;;;5072233;28;20042;-58
2023/03/11 10:46:10;;;;;;;3.10;1.13;;;7.80;99.90;;;;;;5060443;28;20041;-58
2023/03/11 10:48:36;;;;;;;3.13;1.23;;;7.90;99.90;;;;;;5047418;28;20067;-58
2023/03/11 10:51:21;;;;;;;6.30;1.45;;;8.00;99.90;;;;;;5064325;28;20812;-58
2023/03/11 10:53:58;;;;;;;3.42;1.15;;;8.00;99.90;;;;;;5060696;28;20036;-57
2023/03/11 10:56:39;;;;;;;4.88;1.30;;;8.10;99.90;;;;;;5068490;28;20040;-58
2023/03/11 10:59:54;;;;;;;6.38;1.20;;;8.40;99.90;;;;;;5067707;28;20075;-54
2023/03/11 11:02:28;;;;;;;6.50;1.40;;;8.50;99.90;;;;;;5033189;28;20050;-59
2023/03/11 11:05:31;;;;;;;6.68;1.63;;;8.60;99.90;;;;;;5090462;28;20039;-54
2023/03/11 11:08:12;;;;;;;3.85;1.10;;;8.80;99.90;;;;;;5063226;28;20040;-56
2023/03/11 11:10:56;;;;;;;7.03;1.27;;;8.50;99.90;;;;;;5067400;28;20037;-58
2023/03/11 11:13:29;;;;;;;6.25;1.23;;;8.40;99.90;;;;;;5077789;28;20064;-58
2023/03/11 11:16:01;;;;;;;4.13;0.98;;;8.40;99.90;;;;;;5068812;28;20494;-60
2023/03/11 11:18:31;;;;;;;6.20;1.15;;;8.30;99.90;;;;;;5060130;28;20094;-58
2023/03/11 11:21:08;;;;;;;4.80;1.33;;;8.30;99.90;;;;;;5069190;28;20036;-55
2023/03/11 11:23:46;;;;;;;4.35;0.95;;;8.10;99.90;;;;;;5068853;28;20036;-53
2023/03/11 11:26:22;;;;;;;5.50;1.00;;;8.00;99.90;;;;;;5086825;28;20502;-57
2023/03/11 11:29:04;;;;;;;5.43;1.65;;;8.40;99.90;;;;;;5087686;22;20064;-83
2023/03/11 11:31:30;;;;;;;3.58;1.35;;;8.50;99.90;;;;;;5043526;28;20052;-81
2023/03/11 11:33:56;;;;;;;3.28;0.95;;;8.60;99.90;;;;;;5025163;28;20041;-80
2023/03/11 11:36:29;;;;;;;4.28;1.15;;;8.60;99.90;;;;;;5024402;28;20042;-83
2023/03/11 11:39:02;;;;;;;3.83;0.73;;;8.70;99.90;;;;;;5042824;28;20045;-81
2023/03/11 11:41:30;;;;;;;7.30;1.00;;;8.30;99.90;;;;;;5028456;28;20064;-83
2023/03/11 11:44:01;;;;;;;6.43;1.00;;;8.10;99.90;;;;;;5032188;28;20081;-78
2023/03/11 11:46:40;;;;;;;4.57;1.20;;;8.10;99.90;;;;;;5034078;28;20091;-80
2023/03/11 11:49:24;;;;;;;4.57;1.08;;;7.90;99.90;;;;;;5014353;28;20045;-80
2023/03/11 11:52:36;;;;;;;3.33;1.20;;;7.70;99.90;;;;;;5035567;28;20110;-79
2023/03/11 11:55:53;;;;;;;2.38;0.80;;;7.50;99.90;;;;;;5012971;28;20049;-80
2023/03/11 11:59:12;;;;;;;;;;;;;;;;;;;;;
2023/03/11 12:02:29;;;;;;;9.30;1.02;;;7.40;99.90;;;;;;5027091;28;20055;-84
2023/03/11 12:05:36;;;;;;;2.17;0.70;;;7.80;99.90;;;;;;5039391;28;20064;-83
2023/03/11 12:08:35;;;;;;;4.28;0.90;;;7.70;99.90;;;;;;5039002;28;20041;-81
2023/03/11 12:11:42;;;;;;;4.10;0.80;;;8.00;99.90;;;;;;5040072;28;20041;-83
2023/03/11 12:14:46;;;;;;;3.47;0.93;;;7.90;99.90;;;;;;5028014;28;20049;-82
2023/03/11 12:17:19;;;;;;;5.35;1.08;;;7.90;99.90;;;;;;5022589;28;20044;-80
2023/03/11 12:20:17;;;;;;;5.28;0.90;;;8.10;99.90;;;;;;5030947;28;20053;-79
2023/03/11 12:23:01;;;;;;;4.07;1.00;;;7.50;99.90;;;;;;5040107;28;20040;-79
2023/03/11 12:25:31;;;;;;;4.75;0.90;;;7.70;99.90;;;;;;5040489;28;20515;-81
2023/03/11 12:28:18;;;;;;;4.55;1.17;;;7.80;99.90;;;;;;5037693;28;20076;-80
2023/03/11 12:30:59;;;;;;;2.42;0.90;;;8.00;99.90;;;;;;5033108;28;20042;-82
2023/03/11 12:33:49;;;;;;;6.25;0.80;;;8.30;99.90;;;;;;5039543;28;20513;-80
2023/03/11 12:36:30;;;;;;;3.13;0.90;;;8.20;99.90;;;;;;5035380;28;20084;-80
2023/03/11 12:38:59;;;;;;;2.88;0.93;;;8.10;99.70;;;;;;5036661;28;20079;-80
2023/03/11 12:41:48;;;;;;;5.32;0.90;;;8.50;99.90;;;;;;5019767;28;20241;-84
2023/03/11 12:44:29;;;;;;;4.10;0.73;;;8.80;99.90;;;;;;5007989;28;20060;-82
2023/03/11 12:46:57;;;;;;;3.63;1.10;;;8.90;99.90;;;;;;5039642;28;20079;-80
2023/03/11 12:52:27;;;;;;;2.90;1.30;;;9.00;99.90;;;;;;5053490;28;20099;-80
2023/03/11 12:54:59;;;;;;;5.15;0.90;;;9.00;99.90;;;;;;5037620;28;20069;-80
2023/03/11 12:57:56;;;;;;;6.03;1.00;;;9.10;99.90;;;;;;5036342;28;20052;-80
2023/03/11 13:01:00;;;;;;;5.10;0.93;;;9.20;99.90;;;;;;5020433;28;20052;-80
2023/03/11 13:03:28;;;;;;;4.05;0.90;;;9.40;99.90;;;;;;5034709;28;20034;-80
2023/03/11 13:06:40;;;;;;;4.35;1.27;;;9.10;99.70;;;;;;5024923;28;20041;-80
2023/03/11 13:09:14;;;;;;;4.65;0.95;;;9.50;99.90;;;;;;5037956;28;20042;-80
2023/03/11 13:11:43;;;;;;;4.50;0.90;;;9.60;99.60;;;;;;5042247;28;20044;-79
2023/03/11 13:14:32;;;;;;;4.72;1.00;;;9.70;99.80;;;;;;5036574;28;20109;-80
2023/03/11 13:17:25;;;;;;;3.55;1.05;;;9.80;99.30;;;;;;5020487;28;20059;-80
2023/03/11 13:20:29;;;;;;;2.55;0.73;;;9.70;98.40;;;;;;5025668;28;20049;-80